Time;durP1;ratioP1;P1;durP2;ratioP2;P2;SDS_P1;SDS_P2;PMS_P1;PMS_P2;Temp;Humidity;BMP_temperature;BMP_pressure;BME280_temperature;BME280_humidity;BME280_pressure;Samples;Min_cycle;Max_cycle;Signal;HPM_P1;HPM_P2
2020/12/26 00:00:10;;;;;;;3.10;1.80;;;-0.20;99.90;;;;;;5068584;28;20099;-78
2020/12/26 00:02:42;;;;;;;5.00;2.17;;;-0.10;99.90;;;;;;5052725;28;20517;-78
2020/12/26 00:05:13;;;;;;;2.03;1.55;;;-0.10;99.90;;;;;;5068751;28;20143;-78
2020/12/26 00:07:44;;;;;;;2.35;1.58;;;-0.10;99.90;;;;;;5068484;28;20044;-79
2020/12/26 00:10:16;;;;;;;2.38;1.58;;;-0.10;99.90;;;;;;5068530;28;20078;-78
2020/12/26 00:12:48;;;;;;;2.97;1.73;;;-0.10;99.90;;;;;;5068776;28;20041;-78
2020/12/26 00:15:19;;;;;;;5.00;2.30;;;-0.10;99.90;;;;;;5069011;28;20041;-79
2020/12/26 00:17:50;;;;;;;2.45;1.92;;;0.00;99.90;;;;;;5068185;28;20540;-78
2020/12/26 00:20:22;;;;;;;3.53;2.08;;;0.00;99.90;;;;;;5069722;28;20114;-78
2020/12/26 00:22:53;;;;;;;3.72;2.17;;;0.00;99.90;;;;;;5068399;28;20491;-78
2020/12/26 00:25:24;;;;;;;4.18;1.92;;;0.00;99.90;;;;;;5068284;28;20044;-78
2020/12/26 00:27:55;;;;;;;3.45;2.00;;;0.10;99.90;;;;;;5068347;28;20135;-78
2020/12/26 00:30:22;;;;;;;4.43;2.38;;;0.10;99.90;;;;;;5051518;28;20063;-79
2020/12/26 00:32:53;;;;;;;3.80;1.70;;;0.10;99.90;;;;;;5068272;28;20040;-79
2020/12/26 00:35:24;;;;;;;3.42;1.70;;;0.10;99.90;;;;;;5068191;28;20521;-78
2020/12/26 00:37:55;;;;;;;2.47;1.70;;;0.00;99.90;;;;;;5052202;28;20457;-78
2020/12/26 00:40:26;;;;;;;4.75;1.90;;;0.00;99.90;;;;;;5068571;28;20045;-78
2020/12/26 00:42:58;;;;;;;2.33;1.42;;;0.00;99.90;;;;;;5068182;28;20041;-79
2020/12/26 00:45:29;;;;;;;2.00;1.40;;;0.00;99.90;;;;;;5068555;28;20044;-78
2020/12/26 00:48:00;;;;;;;2.13;1.25;;;0.00;99.90;;;;;;5067976;28;20048;-79
2020/12/26 00:50:31;;;;;;;2.60;1.83;;;0.00;99.90;;;;;;5068720;28;20131;-78
2020/12/26 00:53:03;;;;;;;2.30;1.60;;;-0.10;99.90;;;;;;5072431;28;20454;-78
2020/12/26 00:55:34;;;;;;;5.38;2.05;;;-0.10;99.90;;;;;;5072373;28;20552;-78
2020/12/26 00:58:06;;;;;;;2.83;1.67;;;-0.10;99.90;;;;;;5072118;28;20053;-78
2020/12/26 01:00:39;;;;;;;3.55;2.15;;;-0.10;99.90;;;;;;5072332;28;20071;-78
2020/12/26 01:03:32;;;;;;;2.40;1.77;;;-0.10;99.90;;;;;;5072052;28;20048;-78
2020/12/26 01:06:03;;;;;;;3.13;2.20;;;-0.20;99.90;;;;;;5056359;28;20051;-78
2020/12/26 01:08:29;;;;;;;3.67;1.92;;;-0.20;99.90;;;;;;5071886;28;20135;-78
2020/12/26 01:11:00;;;;;;;3.67;2.40;;;-0.20;99.90;;;;;;5071975;28;20047;-78
2020/12/26 01:13:31;;;;;;;3.58;2.40;;;-0.30;99.90;;;;;;5072189;28;20406;-78
2020/12/26 01:16:03;;;;;;;3.30;2.45;;;-0.30;99.90;;;;;;5072056;28;20215;-78
2020/12/26 01:18:34;;;;;;;4.85;2.38;;;-0.20;99.90;;;;;;5071796;28;20469;-78
2020/12/26 01:21:07;;;;;;;3.72;2.22;;;-0.30;99.90;;;;;;5072304;28;20052;-77
2020/12/26 01:23:40;;;;;;;4.30;2.40;;;-0.30;99.90;;;;;;5056133;28;20501;-79
2020/12/26 01:26:14;;;;;;;3.88;2.60;;;-0.30;99.90;;;;;;5072196;28;20048;-78
2020/12/26 01:28:45;;;;;;;3.38;2.40;;;-0.30;99.90;;;;;;5071244;28;20041;-78
2020/12/26 01:31:17;;;;;;;4.70;2.17;;;-0.30;99.90;;;;;;5071505;28;20040;-78
2020/12/26 01:33:48;;;;;;;3.88;2.10;;;-0.30;99.90;;;;;;5071636;28;20041;-78
2020/12/26 01:36:19;;;;;;;3.72;1.88;;;-0.30;99.90;;;;;;5071560;28;20132;-78
2020/12/26 01:38:52;;;;;;;3.60;2.20;;;-0.30;99.90;;;;;;5055286;28;20041;-78
2020/12/26 01:41:24;;;;;;;3.90;2.55;;;-0.40;99.90;;;;;;5071642;28;20047;-78
2020/12/26 01:44:00;;;;;;;5.00;2.55;;;-0.40;99.90;;;;;;5055590;28;20062;-78
2020/12/26 01:46:32;;;;;;;4.88;2.42;;;-0.40;99.90;;;;;;5071478;28;20059;-78
2020/12/26 01:49:03;;;;;;;3.65;2.42;;;-0.50;99.90;;;;;;5070528;28;20040;-78
2020/12/26 01:51:35;;;;;;;4.20;3.05;;;-0.40;99.90;;;;;;5071369;28;20143;-78
2020/12/26 01:54:06;;;;;;;4.25;3.03;;;-0.40;99.90;;;;;;5071119;28;20499;-78
2020/12/26 01:56:41;;;;;;;5.22;2.83;;;-0.40;99.90;;;;;;5072491;28;20032;-78
2020/12/26 01:59:12;;;;;;;4.18;3.00;;;-0.40;99.90;;;;;;5070731;28;20043;-78
2020/12/26 02:01:44;;;;;;;4.72;3.17;;;-0.40;99.90;;;;;;5070208;28;20051;-78
2020/12/26 02:04:15;;;;;;;4.30;2.80;;;-0.40;99.90;;;;;;5070685;28;20048;-78
2020/12/26 02:06:55;;;;;;;6.57;4.03;;;-0.40;99.90;;;;;;5054887;28;20151;-78
2020/12/26 02:09:26;;;;;;;7.22;3.80;;;-0.40;99.90;;;;;;5070379;28;20558;-78
2020/12/26 02:11:58;;;;;;;5.80;3.63;;;-0.40;99.90;;;;;;5071824;28;20033;-78
2020/12/26 02:14:24;;;;;;;5.10;3.30;;;-0.40;99.90;;;;;;5071844;28;20495;-78
2020/12/26 02:16:55;;;;;;;5.03;3.63;;;-0.40;99.90;;;;;;5070563;28;20048;-78
2020/12/26 02:19:26;;;;;;;5.97;3.55;;;-0.40;99.90;;;;;;5070143;28;20495;-78
2020/12/26 02:21:58;;;;;;;6.53;3.83;;;-0.40;99.90;;;;;;5054695;28;20040;-79
2020/12/26 02:24:29;;;;;;;7.00;3.88;;;-0.50;99.90;;;;;;5054693;28;20040;-78
2020/12/26 02:26:55;;;;;;;8.13;4.22;;;-0.50;99.90;;;;;;5054149;28;20139;-79
2020/12/26 02:29:26;;;;;;;6.00;4.00;;;-0.50;99.90;;;;;;5069899;28;20051;-78
2020/12/26 02:31:57;;;;;;;5.78;3.67;;;-0.50;99.90;;;;;;5070071;28;20041;-78
2020/12/26 02:34:29;;;;;;;8.65;3.97;;;-0.50;99.90;;;;;;5054089;28;20396;-78
2020/12/26 02:37:00;;;;;;;5.47;3.97;;;-0.60;99.90;;;;;;5070246;28;20143;-78
2020/12/26 02:39:32;;;;;;;7.88;3.70;;;-0.60;99.90;;;;;;5071021;28;20056;-79
2020/12/26 02:42:03;;;;;;;6.80;3.42;;;-0.70;99.90;;;;;;5070024;28;20036;-78
2020/12/26 02:44:34;;;;;;;6.25;3.55;;;-0.70;99.90;;;;;;5070240;28;20668;-78
2020/12/26 02:47:05;;;;;;;5.93;3.80;;;-0.80;99.90;;;;;;5070361;28;20128;-78
2020/12/26 02:49:36;;;;;;;6.15;4.05;;;-0.80;99.90;;;;;;5069770;28;20131;-78
2020/12/26 02:52:08;;;;;;;8.15;3.80;;;-0.80;99.90;;;;;;5069961;28;20431;-78
2020/12/26 02:54:39;;;;;;;8.25;4.50;;;-0.90;99.90;;;;;;5054229;28;20040;-78
2020/12/26 02:57:10;;;;;;;7.13;4.60;;;-0.90;99.90;;;;;;5054135;28;20489;-78
2020/12/26 02:59:41;;;;;;;8.23;4.88;;;-1.00;99.90;;;;;;5069713;28;20074;-80
2020/12/26 03:02:12;;;;;;;10.00;5.38;;;-1.00;99.90;;;;;;5053716;28;20054;-79
2020/12/26 03:04:43;;;;;;;7.55;4.95;;;-1.00;99.90;;;;;;5069775;28;20394;-78
2020/12/26 03:07:15;;;;;;;7.82;4.93;;;-1.10;99.90;;;;;;5053812;28;20051;-79
2020/12/26 03:09:46;;;;;;;6.78;4.78;;;-1.00;99.90;;;;;;5053487;28;20036;-78
2020/12/26 03:12:17;;;;;;;7.13;4.68;;;-1.00;99.90;;;;;;5069479;28;20041;-79
2020/12/26 03:14:48;;;;;;;7.82;4.63;;;-1.00;99.90;;;;;;5068519;28;20094;-79
2020/12/26 03:17:19;;;;;;;7.45;5.05;;;-1.00;99.90;;;;;;5069631;28;20041;-79
2020/12/26 03:19:51;;;;;;;7.55;4.40;;;-1.00;99.90;;;;;;5068997;28;20131;-78
2020/12/26 03:22:22;;;;;;;9.00;5.20;;;-1.00;99.90;;;;;;5053333;28;20044;-79
2020/12/26 03:24:48;;;;;;;7.32;4.57;;;-1.00;99.90;;;;;;5052746;28;20116;-79
2020/12/26 03:27:19;;;;;;;6.70;4.55;;;-1.00;99.90;;;;;;5069455;28;20047;-79
2020/12/26 03:29:52;;;;;;;10.02;4.30;;;-1.00;99.90;;;;;;5052764;28;20131;-78
2020/12/26 03:32:24;;;;;;;6.80;4.30;;;-1.00;99.90;;;;;;5069100;28;20045;-78
2020/12/26 03:34:50;;;;;;;7.57;5.03;;;-1.10;99.90;;;;;;5052652;28;20043;-78
2020/12/26 03:37:21;;;;;;;8.98;5.28;;;-1.20;99.90;;;;;;5069169;28;20051;-79
2020/12/26 03:39:48;;;;;;;9.38;4.38;;;-1.30;99.90;;;;;;5070156;28;20368;-79
2020/12/26 03:42:14;;;;;;;7.43;4.82;;;-1.30;99.90;;;;;;5068854;28;20040;-79
2020/12/26 03:44:45;;;;;;;7.63;5.50;;;-1.30;99.90;;;;;;5053320;28;20491;-79
2020/12/26 03:47:16;;;;;;;10.23;5.38;;;-1.40;99.90;;;;;;5069060;28;20054;-79
2020/12/26 03:49:48;;;;;;;7.85;4.57;;;-1.40;99.90;;;;;;5068489;28;20125;-78
2020/12/26 03:52:19;;;;;;;8.15;4.68;;;-1.40;99.90;;;;;;5052738;28;20063;-78
2020/12/26 03:54:50;;;;;;;9.65;5.22;;;-1.40;99.90;;;;;;5068838;28;20040;-79
2020/12/26 03:57:21;;;;;;;11.02;5.00;;;-1.40;99.90;;;;;;5068486;28;20487;-79
2020/12/26 03:59:52;;;;;;;8.65;4.80;;;-1.50;99.90;;;;;;5052585;28;20128;-78
2020/12/26 04:02:24;;;;;;;7.53;4.72;;;-1.50;99.90;;;;;;5068627;28;20060;-78
2020/12/26 04:04:55;;;;;;;8.90;5.10;;;-1.50;99.90;;;;;;5052604;28;20050;-80
2020/12/26 04:07:26;;;;;;;8.38;4.82;;;-1.50;99.90;;;;;;5068752;28;20066;-78
2020/12/26 04:09:58;;;;;;;7.25;4.68;;;-1.50;99.90;;;;;;5068099;28;20043;-79
2020/12/26 04:12:29;;;;;;;7.43;5.15;;;-1.60;99.90;;;;;;5068461;28;20041;-78
2020/12/26 04:15:00;;;;;;;7.63;4.70;;;-1.60;99.90;;;;;;5068400;28;20132;-79
2020/12/26 04:17:26;;;;;;;8.95;5.45;;;-1.60;99.90;;;;;;5069783;28;20072;-78
2020/12/26 04:19:57;;;;;;;9.02;5.68;;;-1.60;99.90;;;;;;5068109;28;20044;-78
2020/12/26 04:22:29;;;;;;;8.25;5.47;;;-1.60;99.90;;;;;;5068315;28;20055;-78
2020/12/26 04:24:55;;;;;;;7.35;4.75;;;-1.70;99.90;;;;;;5051491;28;20067;-78
2020/12/26 04:27:21;;;;;;;9.45;5.25;;;-1.70;99.90;;;;;;5051707;28;20140;-79
2020/12/26 04:29:48;;;;;;;10.05;5.47;;;-1.70;99.90;;;;;;5051119;28;20112;-79
2020/12/26 04:32:14;;;;;;;8.45;5.43;;;-1.80;99.90;;;;;;5051570;28;20135;-78
2020/12/26 04:34:40;;;;;;;9.93;5.55;;;-1.80;99.90;;;;;;5051685;28;20131;-79
2020/12/26 04:37:11;;;;;;;8.55;5.68;;;-1.80;99.90;;;;;;5052322;28;20631;-78
2020/12/26 04:39:43;;;;;;;7.90;5.03;;;-1.80;99.90;;;;;;5067919;28;20059;-78
2020/12/26 04:42:15;;;;;;;11.18;5.72;;;-1.80;99.90;;;;;;5068030;28;20044;-78
2020/12/26 04:44:46;;;;;;;8.40;5.18;;;-1.90;99.90;;;;;;5068258;28;20090;-78
2020/12/26 04:47:29;;;;;;;10.27;5.72;;;-1.90;99.90;;;;;;5068299;28;20051;-78
2020/12/26 04:50:00;;;;;;;8.68;5.10;;;-1.80;99.90;;;;;;5067875;28;20425;-78
2020/12/26 04:52:34;;;;;;;10.75;5.50;;;-1.90;99.90;;;;;;5067955;28;20134;-78
2020/12/26 04:55:06;;;;;;;12.13;5.70;;;-1.90;99.90;;;;;;5052108;28;20087;-78
2020/12/26 04:57:34;;;;;;;9.90;5.65;;;-1.90;99.90;;;;;;5051362;28;20083;-78
2020/12/26 05:00:06;;;;;;;9.40;5.65;;;-1.90;99.90;;;;;;5051890;28;20040;-78
2020/12/26 05:02:40;;;;;;;9.77;5.35;;;-1.80;99.90;;;;;;5067979;28;20072;-78
2020/12/26 05:05:12;;;;;;;8.40;4.78;;;-1.80;99.90;;;;;;5068333;28;20041;-79
2020/12/26 05:07:43;;;;;;;11.32;5.25;;;-1.80;99.90;;;;;;5051916;28;20048;-78
2020/12/26 05:10:14;;;;;;;10.88;6.35;;;-1.80;99.90;;;;;;5067920;28;20064;-79
2020/12/26 05:12:46;;;;;;;8.35;5.10;;;-1.80;99.90;;;;;;5051998;28;20437;-78
2020/12/26 05:15:17;;;;;;;10.75;5.55;;;-1.80;99.90;;;;;;5051937;28;20037;-78
2020/12/26 05:17:48;;;;;;;9.30;5.95;;;-1.80;99.90;;;;;;5051549;28;20075;-78
2020/12/26 05:20:24;;;;;;;11.13;6.07;;;-1.80;99.90;;;;;;5067963;28;20135;-78
2020/12/26 05:23:16;;;;;;;9.70;5.85;;;-1.80;99.90;;;;;;5051782;28;20040;-79
2020/12/26 05:25:50;;;;;;;9.90;5.65;;;-1.90;99.90;;;;;;5068050;28;20064;-78
2020/12/26 05:28:32;;;;;;;;;;;-1.90;99.90;;;;;;5068117;28;20056;-78
2020/12/26 05:31:05;;;;;;;8.60;4.95;;;-2.00;99.90;;;;;;5067834;28;19963;-78
2020/12/26 05:33:37;;;;;;;10.20;6.20;;;-1.90;99.90;;;;;;5051814;28;20037;-78
2020/12/26 05:36:08;;;;;;;9.93;5.38;;;-1.90;99.90;;;;;;5067985;28;20041;-79
2020/12/26 05:38:40;;;;;;;9.30;5.32;;;-1.90;99.90;;;;;;5055445;28;20064;-78
2020/12/26 05:41:11;;;;;;;8.45;5.13;;;-2.00;99.90;;;;;;5055524;28;20049;-79
2020/12/26 05:43:43;;;;;;;10.75;5.97;;;-2.00;99.90;;;;;;5055440;28;20507;-79
2020/12/26 05:46:09;;;;;;;11.10;5.75;;;-2.10;99.90;;;;;;5054693;28;20507;-78
2020/12/26 05:48:40;;;;;;;8.23;4.88;;;-2.10;99.90;;;;;;5070833;28;20139;-79
2020/12/26 05:51:25;;;;;;;10.43;5.63;;;-2.10;99.90;;;;;;5071050;28;20131;-78
2020/12/26 05:54:04;;;;;;;13.30;6.25;;;-2.20;99.90;;;;;;5070863;28;20044;-78
2020/12/26 05:56:36;;;;;;;9.60;5.20;;;-2.20;99.90;;;;;;5055443;28;20085;-78
2020/12/26 05:59:23;;;;;;;9.20;5.20;;;-2.20;99.90;;;;;;5054889;28;20564;-78
2020/12/26 06:02:00;;;;;;;7.15;4.80;;;-2.20;99.90;;;;;;5055085;28;20121;-78
2020/12/26 06:04:31;;;;;;;9.40;5.30;;;-2.10;99.90;;;;;;5054995;28;20489;-79
2020/12/26 06:07:02;;;;;;;9.27;5.57;;;-2.10;99.90;;;;;;5072647;28;20466;-77
2020/12/26 06:09:34;;;;;;;11.27;5.53;;;-2.10;99.90;;;;;;5057901;28;20090;-79
2020/12/26 06:12:08;;;;;;;8.95;5.22;;;-2.00;99.90;;;;;;5073954;28;20048;-79
2020/12/26 06:14:40;;;;;;;8.20;4.88;;;-2.00;99.90;;;;;;5074050;28;20044;-80
2020/12/26 06:17:11;;;;;;;8.50;5.30;;;-2.00;99.90;;;;;;5073666;28;20165;-80
2020/12/26 06:19:43;;;;;;;6.95;4.78;;;-1.90;99.90;;;;;;5073607;28;20073;-79
2020/12/26 06:22:14;;;;;;;7.55;4.85;;;-2.00;99.90;;;;;;5073278;28;20041;-79
2020/12/26 06:24:48;;;;;;;8.40;4.45;;;-2.00;99.90;;;;;;5057828;28;20562;-79
2020/12/26 06:27:22;;;;;;;;;;;-2.00;99.90;;;;;;5058061;28;20461;-79
2020/12/26 06:29:54;;;;;;;7.38;4.25;;;-2.00;99.90;;;;;;5073354;28;20130;-79
2020/12/26 06:32:25;;;;;;;8.75;4.90;;;-2.00;99.90;;;;;;5073346;28;20064;-80
2020/12/26 06:34:57;;;;;;;10.07;5.90;;;-2.10;99.90;;;;;;5057520;28;20070;-79
2020/12/26 06:37:28;;;;;;;8.75;5.05;;;-2.20;99.90;;;;;;5073538;28;20037;-79
2020/12/26 06:40:19;;;;;;;11.10;5.47;;;-2.30;99.90;;;;;;5074558;28;20495;-79
2020/12/26 06:42:50;;;;;;;6.68;4.25;;;-2.30;99.90;;;;;;5073206;28;20514;-79
2020/12/26 06:45:36;;;;;;;8.65;5.00;;;-2.30;99.90;;;;;;5057328;28;20143;-79
2020/12/26 06:48:28;;;;;;;10.52;5.10;;;-2.40;99.90;;;;;;5057306;28;20036;-79
2020/12/26 06:51:26;;;;;;;8.50;4.72;;;-2.40;99.90;;;;;;5072965;28;20086;-79
2020/12/26 06:54:02;;;;;;;7.72;5.18;;;-2.40;99.90;;;;;;5072933;28;20047;-79
2020/12/26 06:56:33;;;;;;;10.07;5.57;;;-2.30;99.90;;;;;;5073029;28;20094;-79
2020/12/26 06:59:09;;;;;;;7.50;4.82;;;-2.30;99.90;;;;;;5056920;28;20068;-79
2020/12/26 07:01:46;;;;;;;9.30;5.88;;;-2.30;99.90;;;;;;5073276;28;20036;-78
2020/12/26 07:04:13;;;;;;;9.00;5.00;;;-2.30;99.90;;;;;;5056243;28;20053;-79
2020/12/26 07:06:50;;;;;;;13.27;6.90;;;-2.20;99.90;;;;;;5072899;28;20051;-79
2020/12/26 07:09:36;;;;;;;8.70;5.15;;;-2.20;99.90;;;;;;5072863;28;20552;-79
2020/12/26 07:12:08;;;;;;;8.73;4.95;;;-2.10;99.90;;;;;;5072581;28;20068;-79
2020/12/26 07:14:44;;;;;;;10.95;5.38;;;-2.10;99.90;;;;;;5072538;28;20135;-80
2020/12/26 07:17:13;;;;;;;11.35;5.53;;;-2.00;99.90;;;;;;5072712;28;20098;-79
2020/12/26 07:19:47;;;;;;;7.78;4.65;;;-2.00;99.90;;;;;;5072406;28;20040;-79
2020/12/26 07:22:28;;;;;;;9.02;5.60;;;-2.00;99.90;;;;;;5073459;28;20064;-79
2020/12/26 07:25:02;;;;;;;9.68;6.38;;;-2.00;99.90;;;;;;5073622;28;20064;-79
2020/12/26 07:27:40;;;;;;;9.77;5.70;;;-2.00;99.90;;;;;;5072409;28;20463;-79
2020/12/26 07:30:16;;;;;;;9.75;5.82;;;-2.00;99.90;;;;;;5056275;28;20147;-80
2020/12/26 07:32:55;;;;;;;10.73;5.15;;;-2.00;99.90;;;;;;5056395;28;20127;-79
2020/12/26 07:35:32;;;;;;;9.10;5.57;;;-1.90;99.90;;;;;;5072128;28;20072;-79
2020/12/26 07:38:03;;;;;;;9.23;5.25;;;-1.90;99.90;;;;;;5039390;28;20041;-79
2020/12/26 07:40:37;;;;;;;12.65;6.40;;;-1.90;99.90;;;;;;5052239;28;20058;-81
2020/12/26 07:43:09;;;;;;;;;;;-2.00;99.90;;;;;;5052827;28;20621;-79
2020/12/26 07:45:43;;;;;;;10.25;5.88;;;-2.10;99.90;;;;;;5036514;28;20295;-79
2020/12/26 07:48:11;;;;;;;11.00;6.47;;;-2.10;99.90;;;;;;5052332;28;20086;-80
2020/12/26 07:50:49;;;;;;;8.23;4.07;;;-2.20;99.90;;;;;;5051384;28;20052;-80
2020/12/26 07:53:15;;;;;;;10.25;5.85;;;-2.20;99.90;;;;;;5032538;28;20128;-79
2020/12/26 07:55:42;;;;;;;11.43;6.60;;;-2.30;99.90;;;;;;5015702;28;20045;-80
2020/12/26 07:58:16;;;;;;;9.52;5.75;;;-2.40;99.90;;;;;;5032077;28;20072;-79
2020/12/26 08:00:44;;;;;;;11.75;7.45;;;-2.30;99.90;;;;;;5031645;28;20046;-79
2020/12/26 08:03:16;;;;;;;10.75;6.82;;;-2.30;99.90;;;;;;5016247;28;20068;-79
2020/12/26 08:05:49;;;;;;;11.35;6.18;;;-2.30;99.90;;;;;;5031939;28;20042;-80
2020/12/26 08:08:23;;;;;;;14.57;7.30;;;-2.30;99.90;;;;;;5015795;28;20041;-79
2020/12/26 08:11:00;;;;;;;10.18;6.78;;;-2.30;99.90;;;;;;5015849;28;20046;-79
2020/12/26 08:13:35;;;;;;;10.45;6.38;;;-2.30;99.90;;;;;;5016046;28;20046;-80
2020/12/26 08:16:03;;;;;;;13.90;7.00;;;-2.30;99.90;;;;;;5032145;28;20492;-80
2020/12/26 08:18:35;;;;;;;9.27;5.72;;;-2.20;99.90;;;;;;5030450;28;20046;-76
2020/12/26 08:21:07;;;;;;;9.63;6.03;;;-2.20;99.90;;;;;;5030727;28;20144;-78
2020/12/26 08:23:38;;;;;;;9.70;5.57;;;-2.10;99.90;;;;;;5015323;28;20154;-79
2020/12/26 08:26:05;;;;;;;10.45;5.97;;;-2.10;99.90;;;;;;5015299;28;20061;-80
2020/12/26 08:28:36;;;;;;;13.30;6.93;;;-2.00;99.90;;;;;;5030963;28;20053;-79
2020/12/26 08:31:04;;;;;;;10.18;5.70;;;-2.00;99.90;;;;;;5031848;28;20164;-80
2020/12/26 08:33:40;;;;;;;13.02;7.13;;;-2.00;99.90;;;;;;5015440;28;20041;-79
2020/12/26 08:36:24;;;;;;;10.20;5.78;;;-1.90;99.90;;;;;;5031717;28;20072;-80
2020/12/26 08:39:00;;;;;;;11.02;6.68;;;-1.90;99.90;;;;;;5016488;28;20443;-80
2020/12/26 08:41:33;;;;;;;10.25;6.68;;;-1.90;99.90;;;;;;5016032;28;20041;-80
2020/12/26 08:44:08;;;;;;;10.27;5.88;;;-1.80;99.90;;;;;;5031720;28;20465;-79
2020/12/26 08:46:41;;;;;;;15.88;6.57;;;-1.70;99.90;;;;;;5030365;28;20419;-78
2020/12/26 08:49:14;;;;;;;10.07;6.30;;;-1.60;99.90;;;;;;5012565;28;20128;-78
2020/12/26 08:51:45;;;;;;;13.40;6.25;;;-1.60;99.90;;;;;;5012720;28;20043;-79
2020/12/26 08:54:21;;;;;;;9.20;5.55;;;-1.50;99.90;;;;;;5028485;28;20056;-78
2020/12/26 08:56:52;;;;;;;9.20;5.30;;;-1.50;99.90;;;;;;5012792;28;20496;-79
2020/12/26 08:59:30;;;;;;;10.10;6.05;;;-1.50;99.90;;;;;;5012420;28;20038;-78
2020/12/26 09:02:01;;;;;;;10.23;6.75;;;-1.40;99.90;;;;;;5028489;28;20051;-78
2020/12/26 09:04:27;;;;;;;13.57;6.43;;;-1.30;99.90;;;;;;5012722;28;20508;-78
2020/12/26 09:06:59;;;;;;;8.90;5.75;;;-1.20;99.90;;;;;;5018405;28;20043;-79
2020/12/26 09:09:30;;;;;;;9.65;5.88;;;-1.10;99.90;;;;;;5051224;28;20041;-79
2020/12/26 09:12:02;;;;;;;12.23;6.18;;;-1.00;99.90;;;;;;5035645;28;20048;-79
2020/12/26 09:14:33;;;;;;;12.15;6.72;;;-0.90;99.90;;;;;;5054924;28;20116;-79
2020/12/26 09:17:01;;;;;;;10.50;5.75;;;-0.80;99.90;;;;;;5055103;28;20064;-79
2020/12/26 09:19:43;;;;;;;9.77;5.90;;;-0.80;99.90;;;;;;5054942;28;20051;-79
2020/12/26 09:22:14;;;;;;;9.07;6.25;;;-0.80;99.90;;;;;;5054340;28;20495;-79
2020/12/26 09:24:46;;;;;;;17.60;7.15;;;-0.80;99.90;;;;;;5038550;28;20067;-80
2020/12/26 09:27:19;;;;;;;10.75;5.97;;;-0.80;99.90;;;;;;5054732;28;20067;-79
2020/12/26 09:30:03;;;;;;;9.60;6.40;;;-0.80;99.90;;;;;;5038408;28;20410;-79
2020/12/26 09:32:34;;;;;;;8.05;4.80;;;-0.70;99.90;;;;;;5038388;28;20136;-80
2020/12/26 09:35:24;;;;;;;9.45;5.57;;;-0.70;99.90;;;;;;5038384;28;20715;-79
2020/12/26 09:37:57;;;;;;;11.38;7.10;;;-0.70;99.90;;;;;;5038053;28;20110;-79
2020/12/26 09:40:28;;;;;;;11.23;5.22;;;-0.60;99.90;;;;;;5054002;28;20095;-79
2020/12/26 09:42:55;;;;;;;7.70;4.93;;;-0.60;99.90;;;;;;5037424;28;20052;-79
2020/12/26 09:45:27;;;;;;;9.98;5.25;;;-0.60;99.90;;;;;;5054183;28;20045;-79
2020/12/26 09:47:59;;;;;;;8.27;5.97;;;-0.50;99.90;;;;;;5038119;28;20049;-79
2020/12/26 09:50:31;;;;;;;8.25;4.40;;;-0.50;99.90;;;;;;5038119;28;20061;-79
2020/12/26 09:52:58;;;;;;;9.70;5.35;;;-0.50;99.90;;;;;;5037436;28;20541;-80
2020/12/26 09:55:25;;;;;;;6.47;4.03;;;-0.40;99.90;;;;;;5037391;28;20045;-80
2020/12/26 09:57:51;;;;;;;7.63;5.47;;;-0.50;99.90;;;;;;5052830;28;20033;-79
2020/12/26 10:00:18;;;;;;;7.45;4.78;;;-0.30;99.90;;;;;;5037126;28;20045;-80
2020/12/26 10:02:50;;;;;;;7.03;3.50;;;-0.30;99.90;;;;;;5037580;28;20095;-79
2020/12/26 10:05:21;;;;;;;7.05;4.18;;;-0.30;99.90;;;;;;5038061;28;20044;-78
2020/12/26 10:07:53;;;;;;;5.82;3.17;;;-0.30;99.90;;;;;;5054445;28;20042;-79
2020/12/26 10:10:26;;;;;;;5.85;3.35;;;-0.20;99.90;;;;;;5038974;28;20068;-80
2020/12/26 10:12:52;;;;;;;5.25;3.85;;;-0.20;99.90;;;;;;5053702;28;20045;-79
2020/12/26 10:15:24;;;;;;;6.53;3.53;;;-0.20;99.90;;;;;;5038751;28;20091;-79
2020/12/26 10:17:51;;;;;;;6.47;3.25;;;-0.10;99.90;;;;;;5055117;28;20139;-83
2020/12/26 10:20:18;;;;;;;6.47;3.50;;;-0.10;99.90;;;;;;5053084;28;20044;-79
2020/12/26 10:22:44;;;;;;;6.60;3.30;;;0.00;99.90;;;;;;5049891;28;20132;-79
2020/12/26 10:25:11;;;;;;;6.05;3.42;;;0.10;99.90;;;;;;5016815;28;20045;-79
2020/12/26 10:27:43;;;;;;;6.45;3.55;;;0.10;99.90;;;;;;5050443;28;20053;-79
2020/12/26 10:30:17;;;;;;;5.22;3.20;;;0.10;99.90;;;;;;5033371;28;20396;-79
2020/12/26 10:32:49;;;;;;;6.65;3.95;;;0.10;99.90;;;;;;5051038;28;20092;-79
2020/12/26 10:35:21;;;;;;;6.05;3.90;;;0.20;99.90;;;;;;5054495;28;20041;-79
2020/12/26 10:37:53;;;;;;;6.70;3.95;;;0.10;99.90;;;;;;5037383;28;20503;-79
2020/12/26 10:40:24;;;;;;;4.97;3.38;;;0.20;99.90;;;;;;5053428;28;20518;-79
2020/12/26 10:42:51;;;;;;;8.18;3.63;;;0.20;99.90;;;;;;5052932;28;20048;-82
2020/12/26 10:45:23;;;;;;;5.18;3.60;;;0.30;99.90;;;;;;5053074;28;20499;-79
2020/12/26 10:47:49;;;;;;;8.05;3.95;;;0.40;99.90;;;;;;5035179;28;20043;-77
2020/12/26 10:50:21;;;;;;;4.93;3.20;;;0.50;99.90;;;;;;5036947;28;20037;-79
2020/12/26 10:52:48;;;;;;;5.32;3.65;;;0.60;99.90;;;;;;5036151;28;20588;-79
2020/12/26 10:55:15;;;;;;;5.22;3.25;;;0.60;99.90;;;;;;5036172;28;20044;-79
2020/12/26 10:57:43;;;;;;;6.60;3.17;;;0.60;99.90;;;;;;5036406;28;20041;-79
2020/12/26 11:00:13;;;;;;;7.10;4.20;;;0.50;99.90;;;;;;5052797;28;20043;-79
2020/12/26 11:02:45;;;;;;;7.30;4.55;;;0.40;99.90;;;;;;5052635;28;20419;-79
2020/12/26 11:05:12;;;;;;;6.85;3.90;;;0.50;99.90;;;;;;5052438;28;20095;-79
2020/12/26 11:07:43;;;;;;;8.13;3.67;;;0.50;99.90;;;;;;5036745;28;20037;-79
2020/12/26 11:10:15;;;;;;;6.68;3.58;;;0.50;99.90;;;;;;5051952;28;20049;-79
2020/12/26 11:12:47;;;;;;;8.00;4.05;;;0.60;99.90;;;;;;5052283;28;20675;-79
2020/12/26 11:15:13;;;;;;;6.40;3.88;;;0.70;99.90;;;;;;5035811;28;20045;-79
2020/12/26 11:17:45;;;;;;;9.70;3.92;;;0.70;99.90;;;;;;5052367;28;20538;-79
2020/12/26 11:20:12;;;;;;;7.47;3.83;;;0.80;99.90;;;;;;5052471;28;20049;-79
2020/12/26 11:22:43;;;;;;;7.90;3.30;;;0.80;99.90;;;;;;5036483;28;20068;-79
2020/12/26 11:25:10;;;;;;;5.90;3.30;;;0.80;99.90;;;;;;5052155;28;20044;-79
2020/12/26 11:27:41;;;;;;;5.03;3.15;;;0.80;99.90;;;;;;5052168;28;20063;-80
2020/12/26 11:30:13;;;;;;;7.00;4.50;;;0.90;99.90;;;;;;5052284;28;20037;-79
2020/12/26 11:32:47;;;;;;;5.78;3.25;;;1.00;99.90;;;;;;5052167;28;20071;-79
2020/12/26 11:35:19;;;;;;;6.53;3.45;;;1.00;99.90;;;;;;5051467;28;20491;-79
2020/12/26 11:37:46;;;;;;;6.45;4.30;;;1.10;99.90;;;;;;5052347;28;20040;-79
2020/12/26 11:40:17;;;;;;;5.38;3.65;;;1.00;99.90;;;;;;5036547;28;20044;-79
2020/12/26 11:42:49;;;;;;;8.63;2.85;;;1.00;99.90;;;;;;5052253;28;20442;-79
2020/12/26 11:45:16;;;;;;;6.88;3.63;;;1.00;99.90;;;;;;5052090;28;20530;-79
2020/12/26 11:47:48;;;;;;;5.95;2.95;;;1.00;99.90;;;;;;5036022;28;20090;-79
2020/12/26 11:50:19;;;;;;;4.32;2.90;;;0.90;99.90;;;;;;5051904;28;20040;-79
2020/12/26 11:52:46;;;;;;;5.85;3.65;;;0.80;99.90;;;;;;5034922;28;20561;-79
2020/12/26 11:55:18;;;;;;;5.32;3.08;;;0.80;99.90;;;;;;5051852;28;20037;-79
2020/12/26 11:57:49;;;;;;;3.90;2.75;;;0.90;99.90;;;;;;5015896;28;20041;-79
2020/12/26 12:00:21;;;;;;;6.80;3.28;;;0.90;99.90;;;;;;5015873;28;20524;-79
2020/12/26 12:02:52;;;;;;;8.68;4.45;;;1.00;99.90;;;;;;5017445;28;20048;-79
2020/12/26 12:05:24;;;;;;;5.60;3.58;;;1.00;99.90;;;;;;5034289;28;20500;-79
2020/12/26 12:07:56;;;;;;;6.57;4.63;;;1.10;99.90;;;;;;5018882;28;20037;-80
2020/12/26 12:10:30;;;;;;;7.45;3.72;;;1.00;99.90;;;;;;5034488;28;20096;-80
2020/12/26 12:13:02;;;;;;;4.45;3.30;;;1.00;99.90;;;;;;5019096;28;20053;-82
2020/12/26 12:15:28;;;;;;;10.80;3.55;;;0.90;99.90;;;;;;5024273;28;20037;-80
2020/12/26 12:17:59;;;;;;;7.30;3.28;;;0.90;99.90;;;;;;5037488;28;20064;-81
2020/12/26 12:20:28;;;;;;;8.20;3.58;;;1.00;99.90;;;;;;5037843;28;20418;-80
2020/12/26 12:23:00;;;;;;;5.32;3.05;;;1.00;99.90;;;;;;5036358;28;20508;-81
2020/12/26 12:25:32;;;;;;;5.50;3.00;;;0.90;99.90;;;;;;5036800;28;20063;-84
2020/12/26 12:28:00;;;;;;;5.63;3.17;;;1.00;99.90;;;;;;5051036;28;20042;-83
2020/12/26 12:30:28;;;;;;;6.63;3.42;;;1.00;99.90;;;;;;5027440;28;20057;-80
2020/12/26 12:32:59;;;;;;;4.57;2.97;;;0.90;99.90;;;;;;5025150;28;20069;-82
2020/12/26 12:35:26;;;;;;;5.15;3.15;;;0.90;99.90;;;;;;5022747;28;20041;-79
2020/12/26 12:37:58;;;;;;;5.15;3.45;;;1.00;99.90;;;;;;5033354;28;20072;-81
2020/12/26 12:40:24;;;;;;;4.25;2.83;;;1.00;99.90;;;;;;5021258;28;20041;-82
2020/12/26 12:42:51;;;;;;;5.13;2.92;;;1.00;99.90;;;;;;5032049;28;20135;-81
2020/12/26 12:45:17;;;;;;;7.43;3.80;;;1.10;99.90;;;;;;5022807;28;20050;-81
2020/12/26 12:47:49;;;;;;;8.38;4.97;;;1.10;99.90;;;;;;5028602;28;20037;-82
2020/12/26 12:50:16;;;;;;;5.85;3.85;;;1.20;99.90;;;;;;5029063;28;20038;-80
2020/12/26 12:52:48;;;;;;;7.05;3.20;;;1.20;99.90;;;;;;5035617;28;20516;-81
2020/12/26 12:55:19;;;;;;;8.63;4.35;;;1.20;99.90;;;;;;5038503;28;20052;-80
2020/12/26 12:57:51;;;;;;;7.18;3.85;;;1.20;99.90;;;;;;5048567;28;20056;-80
2020/12/26 13:00:18;;;;;;;6.57;3.38;;;1.20;99.90;;;;;;5044178;28;20451;-78
2020/12/26 13:02:49;;;;;;;6.60;3.20;;;1.20;99.90;;;;;;5033679;28;20053;-78
2020/12/26 13:05:20;;;;;;;8.57;4.40;;;1.20;99.90;;;;;;5018198;28;20095;-78
2020/12/26 13:07:48;;;;;;;4.70;3.10;;;1.20;99.90;;;;;;5033569;28;20057;-78
2020/12/26 13:10:19;;;;;;;4.43;3.55;;;1.20;99.90;;;;;;5034227;28;20041;-78